This is the latest recevied weather packets stored in our database for station/object KO6LQJ. If no packets are shown the sender has not sent any weather packets the latest 10 day(s).
| Time | Temp. | Humidity | Pressure | Rain* | Wind** | Luminosity | Snow |
|---|---|---|---|---|---|---|---|
| 1778076581 | 13.89° C | 67% | 1020.3 hPa | 0 mm | - | 62 W/m² | - |
| 1778076277 | 13.89° C | 70% | 1020.5 hPa | 0 mm | - | 53 W/m² | - |
| 1778075974 | 12.78° C | 72% | 1020.3 hPa | 0 mm | - | 46 W/m² | - |
| 1778075671 | 11.67° C | 76% | 1020.2 hPa | 0 mm | - | 40 W/m² | - |
| 1778075367 | 10.56° C | 78% | 1020.1 hPa | 0 mm | - | 35 W/m² | - |
| 1778075063 | 10° C | 79% | 1020.3 hPa | 0 mm | - | 19 W/m² | - |
| 1778074761 | 10° C | 78% | 1020 hPa | 0 mm | - | 16 W/m² | - |
| 1778074457 | 10° C | 78% | 1020 hPa | 0 mm | - | 13 W/m² | - |
| 1778074154 | 10° C | 78% | 1020 hPa | 0 mm | - | 11 W/m² | - |
| 1778073851 | 10° C | 78% | 1019.6 hPa | 0 mm | - | 9 W/m² | - |
| 1778073549 | 10° C | 78% | 1019.8 hPa | 0 mm | - | 7 W/m² | - |
| 1778073245 | 10° C | 77% | 1020.1 hPa | 0 mm | - | 5 W/m² | - |
| 1778072942 | 10° C | 77% | 1020 hPa | 0 mm | - | 3 W/m² | - |
| 1778072638 | 10° C | 77% | 1020.1 hPa | 0 mm | - | 1 W/m² | - |
| 1778072337 | 10° C | 77% | 1019.6 hPa | 0 mm | - | 0 W/m² | - |
| 1778072035 | 10° C | 77% | 1019.5 hPa | 0 mm | - | 0 W/m² | - |
| 1778071733 | 10.56° C | 77% | 1019.5 hPa | 0 mm | - | 0 W/m² | - |
| 1778071429 | 10° C | 77% | 1019.6 hPa | 0 mm | - | 0 W/m² | - |
| 1778071127 | 10° C | 77% | 1019.6 hPa | 0 mm | - | 0 W/m² | - |
| 1778070825 | 10° C | 77% | 1019.5 hPa | 0 mm | - | 0 W/m² | - |
| 1778070522 | 10° C | 76% | 1019.4 hPa | 0 mm | - | 0 W/m² | - |
| 1778070219 | 10° C | 76% | 1019.4 hPa | 0 mm | - | 0 W/m² | - |
| 1778069918 | 10.56° C | 76% | 1019.2 hPa | 0 mm | - | 0 W/m² | - |
| 1778069614 | 10.56° C | 76% | 1019.4 hPa | 0 mm | - | 0 W/m² | - |
| 1778069311 | 10.56° C | 76% | 1019.1 hPa | 0 mm | - | 0 W/m² | - |
* Rain latest hour (hover to see other rain measurements)
** Current wind speed in m/s (hover to see current wind gust speed)